sensor_id;sensor_type;location;lat;lon;timestamp;P1;durP1;ratioP1;P2;durP2;ratioP2
5297;SDS011;14738;42.668;23.250;2023-05-07T00:00:15;14.80;;;11.47;;
5297;SDS011;14738;42.668;23.250;2023-05-07T00:02:43;17.23;;;10.63;;
5297;SDS011;14738;42.668;23.250;2023-05-07T00:05:09;14.33;;;10.07;;
5297;SDS011;14738;42.668;23.250;2023-05-07T00:07:35;12.40;;;9.03;;
5297;SDS011;14738;42.668;23.250;2023-05-07T00:10:00;11.00;;;9.00;;
5297;SDS011;14738;42.668;23.250;2023-05-07T00:12:26;11.17;;;9.87;;
5297;SDS011;14738;42.668;23.250;2023-05-07T00:14:51;10.50;;;9.23;;
5297;SDS011;14738;42.668;23.250;2023-05-07T00:17:16;12.07;;;9.53;;
5297;SDS011;14738;42.668;23.250;2023-05-07T00:19:42;15.30;;;10.20;;
5297;SDS011;14738;42.668;23.250;2023-05-07T00:22:07;15.47;;;10.50;;
5297;SDS011;14738;42.668;23.250;2023-05-07T00:24:33;12.43;;;8.87;;
5297;SDS011;14738;42.668;23.250;2023-05-07T00:26:58;7.93;;;7.10;;
5297;SDS011;14738;42.668;23.250;2023-05-07T00:29:24;9.60;;;8.80;;
5297;SDS011;14738;42.668;23.250;2023-05-07T00:31:50;8.93;;;8.13;;
5297;SDS011;14738;42.668;23.250;2023-05-07T00:34:15;7.70;;;7.00;;
5297;SDS011;14738;42.668;23.250;2023-05-07T00:36:41;8.00;;;7.30;;
5297;SDS011;14738;42.668;23.250;2023-05-07T00:39:06;8.73;;;6.80;;
5297;SDS011;14738;42.668;23.250;2023-05-07T00:41:32;7.57;;;6.90;;
5297;SDS011;14738;42.668;23.250;2023-05-07T00:43:57;7.33;;;6.70;;
5297;SDS011;14738;42.668;23.250;2023-05-07T00:46:22;7.97;;;7.13;;
5297;SDS011;14738;42.668;23.250;2023-05-07T00:48:49;8.37;;;7.67;;
5297;SDS011;14738;42.668;23.250;2023-05-07T00:51:16;8.53;;;7.60;;
5297;SDS011;14738;42.668;23.250;2023-05-07T00:53:42;8.23;;;7.47;;
5297;SDS011;14738;42.668;23.250;2023-05-07T00:56:08;8.77;;;8.07;;
5297;SDS011;14738;42.668;23.250;2023-05-07T00:58:34;8.77;;;7.97;;
5297;SDS011;14738;42.668;23.250;2023-05-07T01:01:00;11.27;;;7.90;;
5297;SDS011;14738;42.668;23.250;2023-05-07T01:03:25;8.20;;;7.50;;
5297;SDS011;14738;42.668;23.250;2023-05-07T01:05:51;9.53;;;7.77;;
5297;SDS011;14738;42.668;23.250;2023-05-07T01:08:18;9.40;;;8.50;;
5297;SDS011;14738;42.668;23.250;2023-05-07T01:10:44;8.90;;;8.10;;
5297;SDS011;14738;42.668;23.250;2023-05-07T01:13:10;9.03;;;8.23;;
5297;SDS011;14738;42.668;23.250;2023-05-07T01:18:06;9.00;;;8.20;;
5297;SDS011;14738;42.668;23.250;2023-05-07T01:20:32;8.83;;;7.90;;
5297;SDS011;14738;42.668;23.250;2023-05-07T01:22:57;8.10;;;7.40;;
5297;SDS011;14738;42.668;23.250;2023-05-07T01:25:24;8.70;;;7.60;;
5297;SDS011;14738;42.668;23.250;2023-05-07T01:27:50;9.13;;;8.23;;
5297;SDS011;14738;42.668;23.250;2023-05-07T01:30:16;9.40;;;8.20;;
5297;SDS011;14738;42.668;23.250;2023-05-07T01:32:46;9.97;;;8.90;;
5297;SDS011;14738;42.668;23.250;2023-05-07T01:35:18;10.33;;;8.20;;
5297;SDS011;14738;42.668;23.250;2023-05-07T01:37:46;9.03;;;8.20;;
5297;SDS011;14738;42.668;23.250;2023-05-07T01:40:14;8.87;;;7.93;;
5297;SDS011;14738;42.668;23.250;2023-05-07T01:42:41;10.23;;;9.23;;
5297;SDS011;14738;42.668;23.250;2023-05-07T01:45:08;15.60;;;8.80;;
5297;SDS011;14738;42.668;23.250;2023-05-07T01:47:34;11.57;;;9.30;;
5297;SDS011;14738;42.668;23.250;2023-05-07T01:50:01;11.20;;;10.10;;
5297;SDS011;14738;42.668;23.250;2023-05-07T01:52:27;9.23;;;8.10;;
5297;SDS011;14738;42.668;23.250;2023-05-07T01:54:53;8.70;;;7.90;;
5297;SDS011;14738;42.668;23.250;2023-05-07T01:57:18;10.93;;;8.93;;
5297;SDS011;14738;42.668;23.250;2023-05-07T01:59:44;11.43;;;9.87;;
5297;SDS011;14738;42.668;23.250;2023-05-07T02:02:09;9.40;;;8.50;;
5297;SDS011;14738;42.668;23.250;2023-05-07T02:04:35;10.73;;;9.63;;
5297;SDS011;14738;42.668;23.250;2023-05-07T02:07:01;12.20;;;9.80;;
5297;SDS011;14738;42.668;23.250;2023-05-07T02:09:26;11.73;;;10.50;;
5297;SDS011;14738;42.668;23.250;2023-05-07T02:11:52;11.47;;;10.10;;
5297;SDS011;14738;42.668;23.250;2023-05-07T02:14:17;12.13;;;10.70;;
5297;SDS011;14738;42.668;23.250;2023-05-07T02:16:42;11.20;;;10.10;;
5297;SDS011;14738;42.668;23.250;2023-05-07T02:19:08;12.60;;;11.10;;
5297;SDS011;14738;42.668;23.250;2023-05-07T02:21:33;13.30;;;11.90;;
5297;SDS011;14738;42.668;23.250;2023-05-07T02:23:59;11.47;;;10.13;;
5297;SDS011;14738;42.668;23.250;2023-05-07T02:26:24;10.30;;;8.77;;
5297;SDS011;14738;42.668;23.250;2023-05-07T02:28:50;10.50;;;9.40;;
5297;SDS011;14738;42.668;23.250;2023-05-07T02:31:16;12.53;;;10.30;;
5297;SDS011;14738;42.668;23.250;2023-05-07T02:33:42;10.77;;;9.73;;
5297;SDS011;14738;42.668;23.250;2023-05-07T02:36:10;10.77;;;9.77;;
5297;SDS011;14738;42.668;23.250;2023-05-07T02:38:37;11.10;;;10.00;;
5297;SDS011;14738;42.668;23.250;2023-05-07T02:41:03;14.70;;;9.93;;
5297;SDS011;14738;42.668;23.250;2023-05-07T02:43:28;12.80;;;10.80;;
5297;SDS011;14738;42.668;23.250;2023-05-07T02:46:00;14.53;;;11.80;;
5297;SDS011;14738;42.668;23.250;2023-05-07T02:48:26;11.90;;;10.70;;
5297;SDS011;14738;42.668;23.250;2023-05-07T02:50:52;12.80;;;11.53;;
5297;SDS011;14738;42.668;23.250;2023-05-07T02:53:17;13.90;;;12.20;;
5297;SDS011;14738;42.668;23.250;2023-05-07T02:55:42;12.63;;;11.37;;
5297;SDS011;14738;42.668;23.250;2023-05-07T02:58:08;13.17;;;11.00;;
5297;SDS011;14738;42.668;23.250;2023-05-07T03:00:34;13.80;;;12.10;;
5297;SDS011;14738;42.668;23.250;2023-05-07T03:02:59;13.70;;;12.40;;
5297;SDS011;14738;42.668;23.250;2023-05-07T03:05:25;12.33;;;11.13;;
5297;SDS011;14738;42.668;23.250;2023-05-07T03:07:50;12.20;;;11.00;;
5297;SDS011;14738;42.668;23.250;2023-05-07T03:10:15;14.60;;;11.20;;
5297;SDS011;14738;42.668;23.250;2023-05-07T03:12:41;14.43;;;11.70;;
5297;SDS011;14738;42.668;23.250;2023-05-07T03:15:06;17.73;;;11.43;;
5297;SDS011;14738;42.668;23.250;2023-05-07T03:17:33;13.47;;;11.23;;
5297;SDS011;14738;42.668;23.250;2023-05-07T03:19:58;12.80;;;11.53;;
5297;SDS011;14738;42.668;23.250;2023-05-07T03:22:23;12.80;;;11.60;;
5297;SDS011;14738;42.668;23.250;2023-05-07T03:24:49;14.47;;;11.93;;
5297;SDS011;14738;42.668;23.250;2023-05-07T03:27:14;13.00;;;11.70;;
5297;SDS011;14738;42.668;23.250;2023-05-07T03:29:40;12.60;;;11.40;;
5297;SDS011;14738;42.668;23.250;2023-05-07T03:32:05;12.10;;;11.10;;
5297;SDS011;14738;42.668;23.250;2023-05-07T03:34:30;10.50;;;9.50;;
5297;SDS011;14738;42.668;23.250;2023-05-07T03:36:56;9.73;;;8.90;;
5297;SDS011;14738;42.668;23.250;2023-05-07T03:39:21;11.53;;;9.23;;
5297;SDS011;14738;42.668;23.250;2023-05-07T03:41:47;10.60;;;9.50;;
5297;SDS011;14738;42.668;23.250;2023-05-07T03:44:12;10.43;;;9.30;;
5297;SDS011;14738;42.668;23.250;2023-05-07T03:46:38;12.10;;;9.60;;
5297;SDS011;14738;42.668;23.250;2023-05-07T03:49:03;10.67;;;9.57;;
5297;SDS011;14738;42.668;23.250;2023-05-07T03:51:28;12.70;;;9.93;;
5297;SDS011;14738;42.668;23.250;2023-05-07T03:53:54;10.40;;;9.40;;
5297;SDS011;14738;42.668;23.250;2023-05-07T03:56:19;11.40;;;10.30;;
5297;SDS011;14738;42.668;23.250;2023-05-07T03:58:45;10.50;;;9.50;;
5297;SDS011;14738;42.668;23.250;2023-05-07T04:01:12;12.90;;;9.20;;
5297;SDS011;14738;42.668;23.250;2023-05-07T04:03:37;10.00;;;9.00;;
5297;SDS011;14738;42.668;23.250;2023-05-07T04:06:03;11.37;;;10.20;;
5297;SDS011;14738;42.668;23.250;2023-05-07T04:08:28;9.77;;;8.77;;
5297;SDS011;14738;42.668;23.250;2023-05-07T04:10:54;9.53;;;8.73;;
5297;SDS011;14738;42.668;23.250;2023-05-07T04:13:20;9.60;;;8.60;;
5297;SDS011;14738;42.668;23.250;2023-05-07T04:15:45;11.10;;;10.03;;
5297;SDS011;14738;42.668;23.250;2023-05-07T04:18:11;9.53;;;8.50;;
5297;SDS011;14738;42.668;23.250;2023-05-07T04:20:36;9.13;;;8.33;;
5297;SDS011;14738;42.668;23.250;2023-05-07T04:23:02;8.60;;;7.90;;
5297;SDS011;14738;42.668;23.250;2023-05-07T04:25:27;12.17;;;7.40;;
5297;SDS011;14738;42.668;23.250;2023-05-07T04:27:53;10.07;;;7.10;;
5297;SDS011;14738;42.668;23.250;2023-05-07T04:30:18;9.73;;;7.17;;
5297;SDS011;14738;42.668;23.250;2023-05-07T04:32:44;8.40;;;7.70;;
5297;SDS011;14738;42.668;23.250;2023-05-07T04:35:10;9.83;;;8.93;;
5297;SDS011;14738;42.668;23.250;2023-05-07T04:37:38;10.00;;;9.10;;
5297;SDS011;14738;42.668;23.250;2023-05-07T04:40:03;17.30;;;15.50;;
5297;SDS011;14738;42.668;23.250;2023-05-07T04:42:29;19.33;;;16.43;;
5297;SDS011;14738;42.668;23.250;2023-05-07T04:44:55;13.53;;;11.97;;
5297;SDS011;14738;42.668;23.250;2023-05-07T04:47:20;14.33;;;13.00;;
5297;SDS011;14738;42.668;23.250;2023-05-07T04:49:46;11.83;;;10.63;;
5297;SDS011;14738;42.668;23.250;2023-05-07T04:52:11;13.17;;;10.50;;
5297;SDS011;14738;42.668;23.250;2023-05-07T04:54:36;10.17;;;9.17;;
5297;SDS011;14738;42.668;23.250;2023-05-07T04:57:03;11.27;;;9.97;;
5297;SDS011;14738;42.668;23.250;2023-05-07T04:59:29;14.90;;;9.87;;
5297;SDS011;14738;42.668;23.250;2023-05-07T05:01:55;10.33;;;9.23;;
5297;SDS011;14738;42.668;23.250;2023-05-07T05:04:20;10.80;;;9.90;;
5297;SDS011;14738;42.668;23.250;2023-05-07T05:06:46;9.83;;;9.03;;
5297;SDS011;14738;42.668;23.250;2023-05-07T05:09:11;13.43;;;10.60;;
5297;SDS011;14738;42.668;23.250;2023-05-07T05:11:37;9.80;;;9.00;;
5297;SDS011;14738;42.668;23.250;2023-05-07T05:14:02;10.33;;;9.50;;
5297;SDS011;14738;42.668;23.250;2023-05-07T05:16:27;11.93;;;9.40;;
5297;SDS011;14738;42.668;23.250;2023-05-07T05:18:53;9.60;;;8.80;;
5297;SDS011;14738;42.668;23.250;2023-05-07T05:21:20;10.10;;;9.23;;
5297;SDS011;14738;42.668;23.250;2023-05-07T05:23:46;9.40;;;8.60;;
5297;SDS011;14738;42.668;23.250;2023-05-07T05:26:11;8.60;;;8.00;;
5297;SDS011;14738;42.668;23.250;2023-05-07T05:28:36;9.53;;;8.80;;
5297;SDS011;14738;42.668;23.250;2023-05-07T05:31:02;9.23;;;8.53;;
5297;SDS011;14738;42.668;23.250;2023-05-07T05:33:27;9.70;;;8.93;;
5297;SDS011;14738;42.668;23.250;2023-05-07T05:35:55;8.97;;;8.17;;
5297;SDS011;14738;42.668;23.250;2023-05-07T05:38:21;8.73;;;7.93;;
5297;SDS011;14738;42.668;23.250;2023-05-07T05:40:46;10.80;;;9.73;;
5297;SDS011;14738;42.668;23.250;2023-05-07T05:43:13;9.37;;;8.60;;
5297;SDS011;14738;42.668;23.250;2023-05-07T05:45:39;10.50;;;9.50;;
5297;SDS011;14738;42.668;23.250;2023-05-07T05:48:05;9.60;;;8.63;;
5297;SDS011;14738;42.668;23.250;2023-05-07T05:50:31;9.43;;;8.57;;
5297;SDS011;14738;42.668;23.250;2023-05-07T05:52:56;10.33;;;9.33;;
5297;SDS011;14738;42.668;23.250;2023-05-07T05:55:22;9.10;;;8.30;;
5297;SDS011;14738;42.668;23.250;2023-05-07T05:57:48;10.17;;;9.27;;
5297;SDS011;14738;42.668;23.250;2023-05-07T06:00:13;12.10;;;8.57;;
5297;SDS011;14738;42.668;23.250;2023-05-07T06:02:39;10.57;;;8.83;;
5297;SDS011;14738;42.668;23.250;2023-05-07T06:05:05;10.37;;;9.43;;
5297;SDS011;14738;42.668;23.250;2023-05-07T06:07:30;9.40;;;8.70;;
5297;SDS011;14738;42.668;23.250;2023-05-07T06:09:56;9.00;;;8.30;;
5297;SDS011;14738;42.668;23.250;2023-05-07T06:12:21;8.80;;;8.10;;
5297;SDS011;14738;42.668;23.250;2023-05-07T06:14:46;9.33;;;8.60;;
5297;SDS011;14738;42.668;23.250;2023-05-07T06:17:12;9.23;;;8.43;;
5297;SDS011;14738;42.668;23.250;2023-05-07T06:19:37;9.60;;;8.80;;
5297;SDS011;14738;42.668;23.250;2023-05-07T06:22:04;8.80;;;8.20;;
5297;SDS011;14738;42.668;23.250;2023-05-07T06:24:29;9.40;;;8.53;;
5297;SDS011;14738;42.668;23.250;2023-05-07T06:26:55;10.00;;;9.00;;
5297;SDS011;14738;42.668;23.250;2023-05-07T06:29:20;9.67;;;8.87;;
5297;SDS011;14738;42.668;23.250;2023-05-07T06:31:45;9.43;;;8.73;;
5297;SDS011;14738;42.668;23.250;2023-05-07T06:34:11;9.80;;;8.97;;
5297;SDS011;14738;42.668;23.250;2023-05-07T06:36:39;8.77;;;7.93;;
5297;SDS011;14738;42.668;23.250;2023-05-07T06:39:05;8.47;;;7.80;;
5297;SDS011;14738;42.668;23.250;2023-05-07T06:41:31;9.20;;;8.30;;
5297;SDS011;14738;42.668;23.250;2023-05-07T06:43:56;10.60;;;9.50;;
5297;SDS011;14738;42.668;23.250;2023-05-07T06:46:21;10.63;;;9.10;;
5297;SDS011;14738;42.668;23.250;2023-05-07T06:48:47;9.00;;;7.70;;
5297;SDS011;14738;42.668;23.250;2023-05-07T06:51:12;9.70;;;8.80;;
5297;SDS011;14738;42.668;23.250;2023-05-07T06:53:38;9.07;;;8.27;;
5297;SDS011;14738;42.668;23.250;2023-05-07T06:56:03;8.83;;;8.13;;
5297;SDS011;14738;42.668;23.250;2023-05-07T06:58:29;8.70;;;8.10;;
5297;SDS011;14738;42.668;23.250;2023-05-07T07:00:55;9.10;;;8.40;;
5297;SDS011;14738;42.668;23.250;2023-05-07T07:03:20;9.30;;;8.60;;
5297;SDS011;14738;42.668;23.250;2023-05-07T07:05:46;8.47;;;7.70;;
5297;SDS011;14738;42.668;23.250;2023-05-07T07:08:11;8.83;;;8.20;;
5297;SDS011;14738;42.668;23.250;2023-05-07T07:10:36;9.30;;;8.50;;
5297;SDS011;14738;42.668;23.250;2023-05-07T07:18:04;9.67;;;8.70;;
5297;SDS011;14738;42.668;23.250;2023-05-07T07:20:29;10.10;;;9.20;;
5297;SDS011;14738;42.668;23.250;2023-05-07T07:22:58;10.57;;;9.47;;
5297;SDS011;14738;42.668;23.250;2023-05-07T07:25:33;9.43;;;8.63;;
5297;SDS011;14738;42.668;23.250;2023-05-07T07:28:02;13.07;;;11.83;;
5297;SDS011;14738;42.668;23.250;2023-05-07T07:30:27;8.90;;;8.30;;
5297;SDS011;14738;42.668;23.250;2023-05-07T07:32:53;10.00;;;9.10;;
5297;SDS011;14738;42.668;23.250;2023-05-07T07:35:20;10.30;;;9.20;;
5297;SDS011;14738;42.668;23.250;2023-05-07T07:37:45;9.57;;;8.67;;
5297;SDS011;14738;42.668;23.250;2023-05-07T07:40:12;8.67;;;7.87;;
5297;SDS011;14738;42.668;23.250;2023-05-07T07:42:38;9.40;;;8.50;;
5297;SDS011;14738;42.668;23.250;2023-05-07T07:45:04;9.27;;;8.40;;
5297;SDS011;14738;42.668;23.250;2023-05-07T07:47:41;8.37;;;7.57;;
5297;SDS011;14738;42.668;23.250;2023-05-07T07:50:09;9.67;;;8.10;;
5297;SDS011;14738;42.668;23.250;2023-05-07T07:52:35;9.60;;;8.80;;
5297;SDS011;14738;42.668;23.250;2023-05-07T07:55:01;15.73;;;7.30;;
5297;SDS011;14738;42.668;23.250;2023-05-07T07:57:26;7.57;;;6.97;;
5297;SDS011;14738;42.668;23.250;2023-05-07T07:59:52;9.20;;;7.70;;
5297;SDS011;14738;42.668;23.250;2023-05-07T08:02:17;7.40;;;6.30;;
5297;SDS011;14738;42.668;23.250;2023-05-07T08:04:43;8.77;;;7.97;;
5297;SDS011;14738;42.668;23.250;2023-05-07T08:07:09;8.70;;;7.80;;
5297;SDS011;14738;42.668;23.250;2023-05-07T08:09:35;10.13;;;9.23;;
5297;SDS011;14738;42.668;23.250;2023-05-07T08:12:02;12.87;;;7.33;;
5297;SDS011;14738;42.668;23.250;2023-05-07T08:14:27;9.60;;;8.70;;
5297;SDS011;14738;42.668;23.250;2023-05-07T08:16:53;8.63;;;7.93;;
5297;SDS011;14738;42.668;23.250;2023-05-07T08:19:20;9.10;;;8.30;;
5297;SDS011;14738;42.668;23.250;2023-05-07T08:21:46;7.47;;;6.80;;
5297;SDS011;14738;42.668;23.250;2023-05-07T08:24:15;7.87;;;7.17;;
5297;SDS011;14738;42.668;23.250;2023-05-07T08:26:41;8.10;;;7.40;;
5297;SDS011;14738;42.668;23.250;2023-05-07T08:29:07;8.53;;;7.70;;
5297;SDS011;14738;42.668;23.250;2023-05-07T08:31:32;9.87;;;8.90;;
5297;SDS011;14738;42.668;23.250;2023-05-07T08:33:58;9.30;;;8.47;;
5297;SDS011;14738;42.668;23.250;2023-05-07T08:36:24;9.50;;;8.67;;
5297;SDS011;14738;42.668;23.250;2023-05-07T08:38:50;9.27;;;8.47;;
5297;SDS011;14738;42.668;23.250;2023-05-07T08:41:16;9.13;;;8.30;;
5297;SDS011;14738;42.668;23.250;2023-05-07T08:43:41;9.03;;;8.20;;
5297;SDS011;14738;42.668;23.250;2023-05-07T08:46:12;9.53;;;8.53;;
5297;SDS011;14738;42.668;23.250;2023-05-07T08:48:43;10.03;;;8.03;;
5297;SDS011;14738;42.668;23.250;2023-05-07T08:51:11;8.83;;;8.13;;
5297;SDS011;14738;42.668;23.250;2023-05-07T08:53:38;11.00;;;8.10;;
5297;SDS011;14738;42.668;23.250;2023-05-07T08:56:06;10.00;;;9.00;;
5297;SDS011;14738;42.668;23.250;2023-05-07T08:58:33;9.53;;;8.63;;
5297;SDS011;14738;42.668;23.250;2023-05-07T09:00:59;9.70;;;8.90;;
5297;SDS011;14738;42.668;23.250;2023-05-07T09:03:28;10.13;;;9.23;;
5297;SDS011;14738;42.668;23.250;2023-05-07T09:05:53;9.20;;;8.37;;
5297;SDS011;14738;42.668;23.250;2023-05-07T09:08:19;8.60;;;7.80;;
5297;SDS011;14738;42.668;23.250;2023-05-07T09:10:50;9.50;;;8.67;;
5297;SDS011;14738;42.668;23.250;2023-05-07T09:13:15;10.63;;;8.70;;
5297;SDS011;14738;42.668;23.250;2023-05-07T09:15:43;9.90;;;9.00;;
5297;SDS011;14738;42.668;23.250;2023-05-07T09:18:08;9.30;;;8.40;;
5297;SDS011;14738;42.668;23.250;2023-05-07T09:20:33;9.87;;;8.23;;
5297;SDS011;14738;42.668;23.250;2023-05-07T09:23:01;8.33;;;7.63;;
5297;SDS011;14738;42.668;23.250;2023-05-07T09:25:27;8.30;;;7.50;;
5297;SDS011;14738;42.668;23.250;2023-05-07T09:27:54;8.07;;;7.27;;
5297;SDS011;14738;42.668;23.250;2023-05-07T09:30:20;8.80;;;8.00;;
5297;SDS011;14738;42.668;23.250;2023-05-07T09:32:45;17.73;;;10.67;;
5297;SDS011;14738;42.668;23.250;2023-05-07T09:35:15;7.47;;;6.87;;
5297;SDS011;14738;42.668;23.250;2023-05-07T09:37:46;7.37;;;6.87;;
5297;SDS011;14738;42.668;23.250;2023-05-07T09:40:30;7.70;;;7.00;;
5297;SDS011;14738;42.668;23.250;2023-05-07T09:42:56;8.37;;;6.90;;
5297;SDS011;14738;42.668;23.250;2023-05-07T09:45:33;5.97;;;5.57;;
5297;SDS011;14738;42.668;23.250;2023-05-07T09:47:58;6.30;;;5.80;;
5297;SDS011;14738;42.668;23.250;2023-05-07T09:50:31;6.00;;;5.50;;
5297;SDS011;14738;42.668;23.250;2023-05-07T09:53:01;7.43;;;6.20;;
5297;SDS011;14738;42.668;23.250;2023-05-07T09:55:28;6.30;;;5.87;;
5297;SDS011;14738;42.668;23.250;2023-05-07T09:57:54;6.90;;;6.30;;
5297;SDS011;14738;42.668;23.250;2023-05-07T10:00:20;6.20;;;5.60;;
5297;SDS011;14738;42.668;23.250;2023-05-07T10:02:51;6.37;;;5.43;;
5297;SDS011;14738;42.668;23.250;2023-05-07T10:05:17;7.63;;;6.93;;
5297;SDS011;14738;42.668;23.250;2023-05-07T10:07:46;5.83;;;5.30;;
5297;SDS011;14738;42.668;23.250;2023-05-07T10:10:12;6.77;;;6.17;;
5297;SDS011;14738;42.668;23.250;2023-05-07T10:12:38;5.50;;;5.10;;
5297;SDS011;14738;42.668;23.250;2023-05-07T10:15:06;5.37;;;4.97;;
5297;SDS011;14738;42.668;23.250;2023-05-07T10:17:35;5.00;;;4.53;;
5297;SDS011;14738;42.668;23.250;2023-05-07T10:20:04;5.10;;;4.80;;
5297;SDS011;14738;42.668;23.250;2023-05-07T10:22:37;5.63;;;5.13;;
5297;SDS011;14738;42.668;23.250;2023-05-07T10:25:09;5.23;;;4.83;;
5297;SDS011;14738;42.668;23.250;2023-05-07T10:27:50;4.33;;;4.03;;
5297;SDS011;14738;42.668;23.250;2023-05-07T10:33:03;6.60;;;4.80;;
5297;SDS011;14738;42.668;23.250;2023-05-07T10:35:37;4.30;;;3.90;;
5297;SDS011;14738;42.668;23.250;2023-05-07T10:38:06;9.77;;;6.40;;
5297;SDS011;14738;42.668;23.250;2023-05-07T10:40:32;4.67;;;4.37;;
5297;SDS011;14738;42.668;23.250;2023-05-07T10:42:58;4.47;;;4.17;;
5297;SDS011;14738;42.668;23.250;2023-05-07T10:45:25;6.20;;;5.20;;
5297;SDS011;14738;42.668;23.250;2023-05-07T10:50:38;4.77;;;4.47;;
5297;SDS011;14738;42.668;23.250;2023-05-07T10:55:48;5.40;;;5.00;;
5297;SDS011;14738;42.668;23.250;2023-05-07T11:00:46;5.63;;;5.23;;
5297;SDS011;14738;42.668;23.250;2023-05-07T11:03:15;5.37;;;4.97;;
5297;SDS011;14738;42.668;23.250;2023-05-07T11:05:41;4.47;;;4.17;;
5297;SDS011;14738;42.668;23.250;2023-05-07T11:08:07;6.43;;;4.53;;
5297;SDS011;14738;42.668;23.250;2023-05-07T11:10:53;4.90;;;4.47;;
5297;SDS011;14738;42.668;23.250;2023-05-07T11:16:18;4.83;;;4.53;;
5297;SDS011;14738;42.668;23.250;2023-05-07T11:18:49;5.70;;;5.30;;
5297;SDS011;14738;42.668;23.250;2023-05-07T11:21:31;4.73;;;4.33;;
5297;SDS011;14738;42.668;23.250;2023-05-07T11:24:00;4.87;;;4.47;;
5297;SDS011;14738;42.668;23.250;2023-05-07T11:26:28;4.57;;;4.27;;
5297;SDS011;14738;42.668;23.250;2023-05-07T11:28:55;4.30;;;4.00;;
5297;SDS011;14738;42.668;23.250;2023-05-07T11:31:23;4.73;;;4.43;;
5297;SDS011;14738;42.668;23.250;2023-05-07T11:33:51;6.10;;;5.60;;
5297;SDS011;14738;42.668;23.250;2023-05-07T11:36:17;6.17;;;5.67;;
5297;SDS011;14738;42.668;23.250;2023-05-07T11:38:44;5.07;;;4.67;;
5297;SDS011;14738;42.668;23.250;2023-05-07T11:41:10;5.37;;;4.97;;
5297;SDS011;14738;42.668;23.250;2023-05-07T11:43:49;5.63;;;5.23;;
5297;SDS011;14738;42.668;23.250;2023-05-07T11:46:19;4.90;;;4.60;;
5297;SDS011;14738;42.668;23.250;2023-05-07T11:48:45;5.43;;;4.93;;
5297;SDS011;14738;42.668;23.250;2023-05-07T11:51:10;5.23;;;4.73;;
5297;SDS011;14738;42.668;23.250;2023-05-07T11:53:39;5.97;;;5.47;;
5297;SDS011;14738;42.668;23.250;2023-05-07T11:56:11;5.57;;;5.23;;
5297;SDS011;14738;42.668;23.250;2023-05-07T11:58:40;5.33;;;5.03;;
5297;SDS011;14738;42.668;23.250;2023-05-07T12:01:10;5.40;;;5.00;;
5297;SDS011;14738;42.668;23.250;2023-05-07T12:03:37;5.43;;;5.03;;
5297;SDS011;14738;42.668;23.250;2023-05-07T12:06:06;4.93;;;4.57;;
5297;SDS011;14738;42.668;23.250;2023-05-07T12:08:32;5.10;;;4.80;;
5297;SDS011;14738;42.668;23.250;2023-05-07T12:10:57;5.00;;;4.70;;
5297;SDS011;14738;42.668;23.250;2023-05-07T12:13:24;5.33;;;4.80;;
5297;SDS011;14738;42.668;23.250;2023-05-07T12:15:55;4.70;;;4.40;;
5297;SDS011;14738;42.668;23.250;2023-05-07T12:18:21;5.70;;;5.27;;
5297;SDS011;14738;42.668;23.250;2023-05-07T12:20:48;7.83;;;5.00;;
5297;SDS011;14738;42.668;23.250;2023-05-07T12:23:14;4.93;;;4.63;;
5297;SDS011;14738;42.668;23.250;2023-05-07T12:25:40;4.80;;;4.50;;
5297;SDS011;14738;42.668;23.250;2023-05-07T12:28:16;5.23;;;4.93;;
5297;SDS011;14738;42.668;23.250;2023-05-07T12:30:43;4.73;;;4.43;;
5297;SDS011;14738;42.668;23.250;2023-05-07T12:33:10;6.30;;;5.07;;
5297;SDS011;14738;42.668;23.250;2023-05-07T12:35:39;4.33;;;4.13;;
5297;SDS011;14738;42.668;23.250;2023-05-07T12:38:09;7.63;;;4.90;;
5297;SDS011;14738;42.668;23.250;2023-05-07T12:40:46;4.40;;;4.10;;
5297;SDS011;14738;42.668;23.250;2023-05-07T12:43:19;5.20;;;4.70;;
5297;SDS011;14738;42.668;23.250;2023-05-07T12:45:49;5.40;;;4.90;;
5297;SDS011;14738;42.668;23.250;2023-05-07T12:48:15;4.40;;;4.10;;
5297;SDS011;14738;42.668;23.250;2023-05-07T12:50:41;4.23;;;3.93;;
5297;SDS011;14738;42.668;23.250;2023-05-07T12:53:08;4.87;;;4.30;;
5297;SDS011;14738;42.668;23.250;2023-05-07T12:55:49;4.30;;;3.70;;
5297;SDS011;14738;42.668;23.250;2023-05-07T13:00:43;4.67;;;4.37;;
5297;SDS011;14738;42.668;23.250;2023-05-07T13:03:09;4.23;;;4.00;;
5297;SDS011;14738;42.668;23.250;2023-05-07T13:05:36;4.37;;;4.07;;
5297;SDS011;14738;42.668;23.250;2023-05-07T13:08:01;4.27;;;3.97;;
5297;SDS011;14738;42.668;23.250;2023-05-07T13:10:27;4.17;;;3.97;;
5297;SDS011;14738;42.668;23.250;2023-05-07T13:12:53;4.13;;;3.83;;
5297;SDS011;14738;42.668;23.250;2023-05-07T13:15:18;4.17;;;3.87;;
5297;SDS011;14738;42.668;23.250;2023-05-07T13:17:44;4.20;;;4.00;;
5297;SDS011;14738;42.668;23.250;2023-05-07T13:20:10;4.83;;;4.53;;
5297;SDS011;14738;42.668;23.250;2023-05-07T13:22:37;5.40;;;3.53;;
5297;SDS011;14738;42.668;23.250;2023-05-07T13:25:03;5.87;;;4.30;;
5297;SDS011;14738;42.668;23.250;2023-05-07T13:27:29;4.10;;;3.80;;
5297;SDS011;14738;42.668;23.250;2023-05-07T13:29:55;4.40;;;4.10;;
5297;SDS011;14738;42.668;23.250;2023-05-07T13:32:21;5.37;;;4.83;;
5297;SDS011;14738;42.668;23.250;2023-05-07T13:34:46;4.00;;;3.80;;
5297;SDS011;14738;42.668;23.250;2023-05-07T13:37:12;5.47;;;4.40;;
5297;SDS011;14738;42.668;23.250;2023-05-07T13:39:37;4.57;;;3.70;;
5297;SDS011;14738;42.668;23.250;2023-05-07T13:42:03;4.07;;;3.87;;
5297;SDS011;14738;42.668;23.250;2023-05-07T13:44:28;4.50;;;4.20;;
5297;SDS011;14738;42.668;23.250;2023-05-07T13:46:54;4.50;;;4.20;;
5297;SDS011;14738;42.668;23.250;2023-05-07T13:49:19;3.93;;;3.53;;
5297;SDS011;14738;42.668;23.250;2023-05-07T13:51:45;4.50;;;4.20;;
5297;SDS011;14738;42.668;23.250;2023-05-07T13:54:10;3.97;;;3.77;;
5297;SDS011;14738;42.668;23.250;2023-05-07T13:56:36;4.67;;;4.37;;
5297;SDS011;14738;42.668;23.250;2023-05-07T13:59:01;4.40;;;4.17;;
5297;SDS011;14738;42.668;23.250;2023-05-07T14:01:27;4.67;;;4.30;;
5297;SDS011;14738;42.668;23.250;2023-05-07T14:03:53;5.67;;;3.73;;
5297;SDS011;14738;42.668;23.250;2023-05-07T14:06:18;4.37;;;4.07;;
5297;SDS011;14738;42.668;23.250;2023-05-07T14:08:43;10.03;;;3.80;;
5297;SDS011;14738;42.668;23.250;2023-05-07T14:11:09;6.03;;;4.47;;
5297;SDS011;14738;42.668;23.250;2023-05-07T14:13:34;4.13;;;3.83;;
5297;SDS011;14738;42.668;23.250;2023-05-07T14:16:00;4.83;;;4.53;;
5297;SDS011;14738;42.668;23.250;2023-05-07T14:18:25;4.53;;;4.23;;
5297;SDS011;14738;42.668;23.250;2023-05-07T14:20:51;4.10;;;3.90;;
5297;SDS011;14738;42.668;23.250;2023-05-07T14:23:17;4.60;;;4.30;;
5297;SDS011;14738;42.668;23.250;2023-05-07T14:25:44;4.67;;;4.37;;
5297;SDS011;14738;42.668;23.250;2023-05-07T14:28:11;4.20;;;3.90;;
5297;SDS011;14738;42.668;23.250;2023-05-07T14:30:36;4.47;;;4.13;;
5297;SDS011;14738;42.668;23.250;2023-05-07T14:33:01;4.67;;;4.37;;
5297;SDS011;14738;42.668;23.250;2023-05-07T14:35:27;4.20;;;3.90;;
5297;SDS011;14738;42.668;23.250;2023-05-07T14:37:52;4.57;;;4.17;;
5297;SDS011;14738;42.668;23.250;2023-05-07T14:40:18;4.50;;;4.30;;
5297;SDS011;14738;42.668;23.250;2023-05-07T14:42:43;4.50;;;4.20;;
5297;SDS011;14738;42.668;23.250;2023-05-07T14:45:09;4.90;;;4.43;;
5297;SDS011;14738;42.668;23.250;2023-05-07T14:47:34;4.10;;;3.90;;
5297;SDS011;14738;42.668;23.250;2023-05-07T14:50:00;4.63;;;4.33;;
5297;SDS011;14738;42.668;23.250;2023-05-07T14:52:26;4.17;;;3.87;;
5297;SDS011;14738;42.668;23.250;2023-05-07T14:54:51;4.47;;;4.07;;
5297;SDS011;14738;42.668;23.250;2023-05-07T14:57:17;5.00;;;4.63;;
5297;SDS011;14738;42.668;23.250;2023-05-07T14:59:43;4.20;;;3.90;;